Coshocton, Ohio
Current Conditions -  °F | °C
As of 9:39 AM on Tuesday 21 Oct 2014 (Local Time) from KZZV Reporting Station
Haze Haze  
Wind Chill: 50°   Ceiling: 1200
Heat Index: 50°   Visibility: 3mi
Dew Point: 48°   Wind: 7mph
Humidity: 93%   Direction: 290°WNW
Pressure: 29.91"   Gusts: NA
Location:  40.27°N, 81.87°W
Report Text: KZZV 211339Z AUTO 29006KT 3SM BR OVC012 10/09 A2991 RMK AO2 T01000089
Loading
Personal Weather Stations






























Interactive Weather Map
Tropical Storm Tracking
New forecast layout! Learn more

10-Day Weather Forecast

Advertisements
Track Severe Weather on mobile